Time;durP1;ratioP1;P1;durP2;ratioP2;P2;SDS_P1;SDS_P2;PMS_P1;PMS_P2;Temp;Humidity;BMP_temperature;BMP_pressure;BME280_temperature;BME280_humidity;BME280_pressure;Samples;Min_cycle;Max_cycle;Signal;HPM_P1;HPM_P2
2023/05/24 00:00:10;;;;;;;0.60;0.60;;;;;;;11.86;76.99;97177.91;29395;225;63009;-53
2023/05/24 00:00:41;;;;;;;0.65;0.65;;;;;;;11.85;76.72;97177.09;29395;230;63004;-53
2023/05/24 00:01:15;;;;;;;0.50;0.50;;;;;;;11.84;76.57;97178.19;29394;210;64013;-53
2023/05/24 00:01:47;;;;;;;0.50;0.50;;;;;;;11.84;76.78;97177.38;29395;220;63004;-53
2023/05/24 00:02:22;;;;;;;0.50;0.50;;;;;;;11.82;77.37;97177.69;29395;269;63009;-62
2023/05/24 00:02:56;;;;;;;0.45;0.45;;;;;;;11.82;77.24;97172.25;29395;269;63010;-53
2023/05/24 00:03:33;;;;;;;0.60;0.60;;;;;;;11.89;77.19;97174.59;29395;404;63012;-53
2023/05/24 00:04:05;;;;;;;0.50;0.50;;;;;;;11.88;76.81;97171.06;29394;245;64008;-52
2023/05/24 00:04:36;;;;;;;0.50;0.50;;;;;;;11.87;76.71;97177.62;29395;289;63009;-53
2023/05/24 00:05:09;;;;;;;0.50;0.50;;;;;;;11.85;76.64;97170.84;29395;211;63005;-53
2023/05/24 00:05:40;;;;;;;0.50;0.50;;;;;;;11.83;76.48;97176.59;29395;226;63009;-53
2023/05/24 00:06:12;;;;;;;0.50;0.50;;;;;;;11.80;76.88;97168.19;29395;266;63005;-53
2023/05/24 00:06:43;;;;;;;0.50;0.50;;;;;;;11.78;76.98;97170.44;29395;198;63009;-52
2023/05/24 00:07:15;;;;;;;0.50;0.50;;;;;;;11.75;77.56;97172.59;29395;358;63005;-53
2023/05/24 00:07:46;;;;;;;0.50;0.50;;;;;;;11.73;77.49;97166.66;29395;199;63009;-63
2023/05/24 00:08:17;;;;;;;0.50;0.50;;;;;;;11.74;77.35;97172.91;29395;218;63004;-53
2023/05/24 00:08:49;;;;;;;0.50;0.50;;;;;;;11.73;77.65;97169.38;29394;257;64013;-53
2023/05/24 00:09:20;;;;;;;0.50;0.50;;;;;;;11.73;77.67;97171.28;29395;218;63004;-53
2023/05/24 00:09:52;;;;;;;0.50;0.50;;;;;;;11.73;77.96;97172.09;29395;210;63009;-53
2023/05/24 00:10:23;;;;;;;0.50;0.50;;;;;;;11.74;77.60;97170.19;29395;221;63004;-54
2023/05/24 00:10:54;;;;;;;0.50;0.50;;;;;;;11.76;77.97;97167.97;29395;221;63009;-54
2023/05/24 00:11:26;;;;;;;0.50;0.50;;;;;;;11.75;77.48;97166.34;29395;266;63005;-53
2023/05/24 00:11:58;;;;;;;0.50;0.50;;;;;;;11.75;77.46;97164.44;29395;211;63009;-54
2023/05/24 00:12:29;;;;;;;0.50;0.50;;;;;;;11.76;77.50;97176.13;29395;227;63005;-53
2023/05/24 00:13:00;;;;;;;0.50;0.50;;;;;;;11.74;77.51;97164.75;29395;239;63009;-53
2023/05/24 00:13:35;;;;;;;0.50;0.50;;;;;;;11.72;77.73;97164.22;29395;196;63005;-52
2023/05/24 00:14:06;;;;;;;0.50;0.50;;;;;;;11.70;77.81;97169.94;29394;243;64013;-52
2023/05/24 00:14:38;;;;;;;0.50;0.50;;;;;;;11.70;77.67;97169.16;29395;200;63005;-52
2023/05/24 00:15:10;;;;;;;0.60;0.60;;;;;;;11.70;77.96;97163.72;29395;229;63009;-63
2023/05/24 00:15:44;;;;;;;0.50;0.50;;;;;;;11.68;77.83;97165.91;29395;223;63004;-55
2023/05/24 00:16:16;;;;;;;0.50;0.50;;;;;;;11.71;77.84;97165.31;29395;233;63009;-64
2023/05/24 00:16:47;;;;;;;0.50;0.50;;;;;;;11.72;78.05;97166.94;29395;239;63004;-62
2023/05/24 00:17:18;;;;;;;0.50;0.50;;;;;;;11.72;77.81;97164.22;29395;197;63009;-52
2023/05/24 00:17:50;;;;;;;0.50;0.50;;;;;;;11.71;77.78;97165.31;29394;252;63999;-53
2023/05/24 00:18:22;;;;;;;0.50;0.50;;;;;;;11.70;77.70;97163.72;29395;317;63008;-63
2023/05/24 00:18:53;;;;;;;0.50;0.50;;;;;;;11.69;77.70;97162.91;29395;234;63005;-53
2023/05/24 00:19:28;;;;;;;0.50;0.50;;;;;;;11.69;77.72;97172.97;29395;278;63017;-53
2023/05/24 00:20:00;;;;;;;0.50;0.50;;;;;;;11.69;77.85;97164.81;29395;241;63005;-61
2023/05/24 00:20:31;;;;;;;0.50;0.50;;;;;;;11.70;78.09;97163.72;29395;254;63009;-52
2023/05/24 00:21:02;;;;;;;0.50;0.50;;;;;;;11.72;78.05;97161.50;29395;197;63011;-53
2023/05/24 00:21:35;;;;;;;0.50;0.50;;;;;;;11.73;78.14;97163.13;29394;278;64013;-52
2023/05/24 00:22:12;;;;;;;0.50;0.50;;;;;;;11.74;78.21;97167.47;29395;247;63005;-53
2023/05/24 00:22:48;;;;;;;0.47;0.47;;;;;;;11.74;77.89;97170.19;29395;253;63009;-52
2023/05/24 00:23:20;;;;;;;0.50;0.50;;;;;;;11.71;77.57;97159.88;29395;218;63004;-64
2023/05/24 00:23:53;;;;;;;0.50;0.50;;;;;;;11.70;77.79;97161.00;29394;245;64013;-52
2023/05/24 00:24:24;;;;;;;0.50;0.50;;;;;;;11.69;77.67;97167.53;29395;384;63004;-52
2023/05/24 00:24:55;;;;;;;0.50;0.50;;;;;;;11.69;78.07;97156.66;29395;249;63017;-53
2023/05/24 00:25:26;;;;;;;0.50;0.50;;;;;;;11.69;77.98;97167.53;29395;261;63004;-52
2023/05/24 00:25:58;;;;;;;0.50;0.50;;;;;;;11.67;78.04;97167.00;29395;221;63009;-52
2023/05/24 00:26:29;;;;;;;0.50;0.50;;;;;;;11.64;78.49;97162.97;29395;262;63011;-52
2023/05/24 00:27:01;;;;;;;0.50;0.50;;;;;;;11.65;78.62;97167.31;29395;246;63009;-52
2023/05/24 00:27:32;;;;;;;0.50;0.50;;;;;;;11.68;78.55;97165.91;29395;225;63020;-53
2023/05/24 00:28:03;;;;;;;0.50;0.50;;;;;;;11.74;78.55;97159.31;29395;256;63009;-53
2023/05/24 00:28:36;;;;;;;0.50;0.50;;;;;;;11.79;77.98;97156.50;29395;216;63005;-53
2023/05/24 00:29:17;;;;;;;;;;;;;;;11.79;77.78;97158.44;29996;983;6009;-63
2023/05/24 00:29:58;;;;;;;0.50;0.50;;;;;;;11.78;77.95;97160.38;29399;230;64009;-52
2023/05/24 00:30:29;;;;;;;0.50;0.50;;;;;;;11.75;78.09;97160.91;29394;247;64009;-53
2023/05/24 00:31:04;;;;;;;0.50;0.50;;;;;;;11.72;78.12;97166.94;29395;327;63009;-52
2023/05/24 00:31:39;;;;;;;0.50;0.50;;;;;;;11.69;78.36;97160.19;29395;347;63004;-52
2023/05/24 00:32:10;;;;;;;0.50;0.50;;;;;;;11.66;78.77;97154.50;29395;248;63009;-52
2023/05/24 00:32:45;;;;;;;0.50;0.50;;;;;;;11.67;79.21;97164.28;29395;196;63004;-52
2023/05/24 00:33:16;;;;;;;0.50;0.50;;;;;;;11.66;78.71;97154.50;29395;233;63008;-52
2023/05/24 00:33:50;;;;;;;0.50;0.50;;;;;;;11.67;78.67;97153.41;29395;238;63005;-54
2023/05/24 00:34:24;;;;;;;0.80;0.80;;;;;;;11.68;78.36;97155.03;29394;197;64014;-53
2023/05/24 00:34:56;;;;;;;0.50;0.50;;;;;;;11.69;78.20;97151.22;29395;203;63005;-53
2023/05/24 00:35:28;;;;;;;0.50;0.50;;;;;;;11.69;78.25;97151.22;29395;418;63009;-53
2023/05/24 00:36:00;;;;;;;0.45;0.45;;;;;;;11.69;78.15;97151.22;29395;239;63005;-53
2023/05/24 00:36:32;;;;;;;0.50;0.50;;;;;;;11.69;78.02;97148.50;29395;224;63009;-54
2023/05/24 00:37:04;;;;;;;0.50;0.50;;;;;;;11.68;78.27;97150.41;29395;224;63005;-53
2023/05/24 00:37:36;;;;;;;0.50;0.50;;;;;;;11.67;78.37;97153.41;29395;203;63009;-53
2023/05/24 00:38:07;;;;;;;0.50;0.50;;;;;;;11.67;78.45;97148.78;29395;235;63004;-54
2023/05/24 00:38:38;;;;;;;0.50;0.50;;;;;;;11.67;78.57;97153.41;29395;209;63009;-64
2023/05/24 00:39:10;;;;;;;0.50;0.50;;;;;;;11.67;78.60;97142.53;29394;214;64009;-53
2023/05/24 00:39:41;;;;;;;0.50;0.50;;;;;;;11.64;78.86;97148.56;29395;254;63009;-53
2023/05/24 00:40:13;;;;;;;0.50;0.50;;;;;;;11.63;79.12;97150.47;29395;238;63004;-53
2023/05/24 00:40:44;;;;;;;0.50;0.50;;;;;;;11.63;79.03;97144.22;29395;266;63008;-54
2023/05/24 00:41:16;;;;;;;0.50;0.50;;;;;;;11.63;78.69;97147.75;29394;245;64009;-54
2023/05/24 00:41:47;;;;;;;0.50;0.50;;;;;;;11.64;78.83;97148.56;29395;218;63009;-53
2023/05/24 00:42:19;;;;;;;0.50;0.50;;;;;;;11.65;79.21;97144.75;29395;260;63005;-51
2023/05/24 00:42:51;;;;;;;0.50;0.50;;;;;;;11.64;78.87;97140.41;29395;222;63009;-52
2023/05/24 00:43:23;;;;;;;0.50;0.50;;;;;;;11.72;79.01;97145.19;29395;247;63005;-54
2023/05/24 00:43:54;;;;;;;0.50;0.50;;;;;;;11.77;78.10;97147.88;29395;212;63009;-54
2023/05/24 00:44:25;;;;;;;0.50;0.50;;;;;;;11.79;78.18;97140.22;29394;239;64009;-53
2023/05/24 00:44:56;;;;;;;0.50;0.50;;;;;;;11.84;77.67;97142.84;29395;212;63009;-52
2023/05/24 00:45:28;;;;;;;0.50;0.50;;;;;;;11.81;77.39;97143.44;29395;230;63004;-52
2023/05/24 00:46:26;;;;;;;0.50;0.50;;;;;;;11.78;77.92;97144.06;29394;453;64013;-62
2023/05/24 00:46:59;;;;;;;0.50;0.50;;;;;;;11.77;78.18;97147.06;29395;202;63004;-52
2023/05/24 00:47:31;;;;;;;0.52;0.52;;;;;;;11.75;78.10;97147.31;29395;225;63009;-51
2023/05/24 00:48:03;;;;;;;0.50;0.50;;;;;;;11.74;78.21;97148.44;29395;245;63004;-52
2023/05/24 00:48:34;;;;;;;0.50;0.50;;;;;;;11.72;78.17;97146.00;29395;238;63009;-53
2023/05/24 00:49:06;;;;;;;0.98;0.98;;;;;;;11.72;78.60;97145.19;29395;225;63005;-53
2023/05/24 00:49:37;;;;;;;0.50;0.50;;;;;;;11.71;78.54;97144.38;29394;257;64014;-52
2023/05/24 00:50:15;;;;;;;0.50;0.50;;;;;;;11.71;78.47;97149.00;29395;240;63005;-52
2023/05/24 00:50:50;;;;;;;0.50;0.50;;;;;;;11.71;78.25;97143.56;29395;219;63009;-53
2023/05/24 00:51:23;;;;;;;0.50;0.50;;;;;;;11.74;78.64;97146.53;29394;269;64005;-53
2023/05/24 00:51:54;;;;;;;0.50;0.50;;;;;;;11.78;77.96;97137.81;29395;260;63009;-52
2023/05/24 00:52:26;;;;;;;0.55;0.55;;;;;;;11.77;77.05;97141.63;29395;203;63005;-52
2023/05/24 00:53:06;;;;;;;0.50;0.50;;;;;;;11.72;77.05;97139.75;29395;303;63017;-54
2023/05/24 00:53:42;;;;;;;0.50;0.50;;;;;;;11.69;77.08;97134.91;29438;235;64009;-52
2023/05/24 00:54:14;;;;;;;0.50;0.50;;;;;;;11.64;77.14;97143.13;29373;211;63009;-52
2023/05/24 00:54:45;;;;;;;0.50;0.50;;;;;;;11.63;77.27;97139.59;29394;220;64009;-53
2023/05/24 00:55:20;;;;;;;0.50;0.50;;;;;;;11.64;77.48;97145.84;29395;232;63008;-55
2023/05/24 00:55:52;;;;;;;0.50;0.50;;;;;;;11.66;77.73;97146.38;29395;220;63004;-53
2023/05/24 00:56:25;;;;;;;0.50;0.50;;;;;;;11.66;77.86;97135.50;29395;269;63019;-52
2023/05/24 00:56:57;;;;;;;0.50;0.50;;;;;;;11.66;77.95;97147.16;29395;330;63005;-52
2023/05/24 00:57:32;;;;;;;0.50;0.50;;;;;;;11.67;78.40;97142.53;29395;388;63009;-54
2023/05/24 00:58:03;;;;;;;0.50;0.50;;;;;;;11.72;77.64;97139.75;29394;221;64009;-54
2023/05/24 00:58:35;;;;;;;0.50;0.50;;;;;;;11.83;76.41;97141.25;29395;220;63009;-54
2023/05/24 00:59:07;;;;;;;0.50;0.50;;;;;;;11.89;75.82;97140.06;29395;199;63009;-53
2023/05/24 00:59:38;;;;;;;0.50;0.50;;;;;;;11.91;74.95;97131.62;29395;196;63009;-52
2023/05/24 01:00:11;;;;;;;0.50;0.50;;;;;;;11.88;75.07;97143.06;29395;317;63005;-53
2023/05/24 01:00:48;;;;;;;0.50;0.50;;;;;;;11.84;74.79;97142.84;29394;202;64013;-53
2023/05/24 01:01:20;;;;;;;0.50;0.50;;;;;;;11.79;75.06;97140.22;29395;470;63004;-54
2023/05/24 01:01:51;;;;;;;0.50;0.50;;;;;;;11.79;75.58;97140.22;29394;239;64013;-54
2023/05/24 01:02:24;;;;;;;0.60;0.60;;;;;;;11.82;75.49;97136.91;29395;327;63004;-53
2023/05/24 01:02:55;;;;;;;0.50;0.50;;;;;;;11.83;75.47;97138.53;29395;245;63008;-53
2023/05/24 01:03:28;;;;;;;0.50;0.50;;;;;;;11.83;75.39;97135.00;29395;328;63004;-52
2023/05/24 01:03:59;;;;;;;0.50;0.50;;;;;;;11.87;74.35;97142.25;29395;197;63019;-52
2023/05/24 01:04:32;;;;;;;0.50;0.50;;;;;;;11.85;74.13;97133.59;29395;215;63008;-52
2023/05/24 01:05:04;;;;;;;0.50;0.50;;;;;;;11.82;73.74;97138.81;29394;221;64005;-53
2023/05/24 01:05:36;;;;;;;0.50;0.50;;;;;;;11.79;73.83;97140.22;29395;308;63005;-53
2023/05/24 01:06:08;;;;;;;0.50;0.50;;;;;;;11.78;73.91;97144.06;29395;222;63009;-53
2023/05/24 01:07:12;;;;;;;0.50;0.50;;;;;;;11.73;73.01;97135.94;29395;214;63010;-53
2023/05/24 01:08:36;;;;;;;0.50;0.50;;;;;;;11.71;73.11;97143.56;29395;278;63009;-53
2023/05/24 01:09:24;;;;;;;0.50;0.50;;;;;;;11.66;72.50;97147.16;29394;209;64009;-53
2023/05/24 01:10:33;;;;;;;0.50;0.50;;;;;;;11.65;73.30;97147.47;29395;248;63008;-52
2023/05/24 01:11:28;;;;;;;0.50;0.50;;;;;;;11.64;73.28;97143.13;29394;201;64001;-53
2023/05/24 01:12:27;;;;;;;0.50;0.50;;;;;;;11.63;73.20;97139.59;29395;424;63009;-52
2023/05/24 01:13:23;;;;;;;0.60;0.60;;;;;;;11.61;73.42;97149.97;29395;404;63005;-53
2023/05/24 01:14:18;;;;;;;0.50;0.50;;;;;;;11.64;73.78;97145.84;29395;248;63009;-52
2023/05/24 01:15:21;;;;;;;0.50;0.50;;;;;;;11.62;73.92;97139.91;29394;221;64009;-53
2023/05/24 01:16:09;;;;;;;0.50;0.50;;;;;;;11.61;73.78;97144.53;29395;249;63009;-52
2023/05/24 01:16:51;;;;;;;0.50;0.50;;;;;;;11.61;73.86;97146.44;29395;341;63004;-52
2023/05/24 01:18:01;;;;;;;0.60;0.60;;;;;;;11.61;73.72;97144.53;29416;216;64013;-52
2023/05/24 01:18:38;;;;;;;0.50;0.50;;;;;;;11.60;73.03;97142.91;29395;265;63005;-52
2023/05/24 01:19:44;;;;;;;0.50;0.50;;;;;;;11.56;72.50;97141.88;29395;264;63009;-53
2023/05/24 01:20:19;;;;;;;0.50;0.50;;;;;;;11.55;73.01;97139.44;29395;230;63009;-52
2023/05/24 01:21:27;;;;;;;0.50;0.50;;;;;;;11.54;73.50;97141.34;29394;392;64009;-52
2023/05/24 01:22:31;;;;;;;0.50;0.50;;;;;;;11.49;73.89;97135.16;29395;206;63009;-52
2023/05/24 01:23:55;;;;;;;0.50;0.50;;;;;;;11.45;73.55;97140.38;29395;210;63012;-52
2023/05/24 01:25:04;;;;;;;0.60;0.60;;;;;;;11.46;73.80;97143.91;29395;282;63009;-52
2023/05/24 01:26:12;;;;;;;0.50;0.50;;;;;;;11.46;73.79;97138.47;29395;273;63005;-53
2023/05/24 01:27:08;;;;;;;0.50;0.50;;;;;;;11.48;73.97;97141.72;29394;209;64009;-53
2023/05/24 01:27:42;;;;;;;0.50;0.50;;;;;;;11.49;73.78;97146.03;29395;218;63005;-52
2023/05/24 01:28:16;;;;;;;0.60;0.60;;;;;;;11.47;73.13;97135.47;29395;211;63009;-52
2023/05/24 01:28:49;;;;;;;0.52;0.52;;;;;;;11.47;73.14;97138.19;29394;238;64009;-54
2023/05/24 01:29:22;;;;;;;0.50;0.50;;;;;;;11.48;72.84;97144.44;29395;257;63009;-52
2023/05/24 01:29:56;;;;;;;0.50;0.50;;;;;;;11.47;73.12;97140.91;29395;207;63004;-54
2023/05/24 01:30:27;;;;;;;1.40;1.25;;;;;;;11.48;72.77;97144.44;29395;214;63009;-53
2023/05/24 01:31:00;;;;;;;0.50;0.50;;;;;;;11.46;72.18;97141.19;29395;202;63004;-52
2023/05/24 01:31:33;;;;;;;0.50;0.50;;;;;;;11.43;72.65;97140.66;29395;223;63009;-53
2023/05/24 01:32:06;;;;;;;0.50;0.50;;;;;;;11.43;72.49;97144.53;29395;415;63004;-53
2023/05/24 01:32:39;;;;;;;0.50;0.50;;;;;;;11.43;72.67;97144.53;29394;355;64013;-53
2023/05/24 01:33:11;;;;;;;0.50;0.50;;;;;;;11.42;72.85;97138.28;29395;531;63005;-54
2023/05/24 01:33:44;;;;;;;0.50;0.50;;;;;;;11.43;73.02;97147.22;29394;200;64014;-52
2023/05/24 01:34:15;;;;;;;0.50;0.50;;;;;;;11.41;72.24;97144.81;29395;215;63005;-52
2023/05/24 01:34:46;;;;;;;0.50;0.50;;;;;;;11.39;72.58;97141.56;29395;206;63012;-52
2023/05/24 01:35:18;;;;;;;0.50;0.50;;;;;;;11.38;72.47;97139.97;29395;208;63005;-53
2023/05/24 01:35:49;;;;;;;0.50;0.50;;;;;;;11.36;73.15;97148.41;29395;237;63009;-53
2023/05/24 01:36:20;;;;;;;0.50;0.50;;;;;;;11.35;73.46;97140.53;29395;227;63005;-52
2023/05/24 01:36:52;;;;;;;0.50;0.50;;;;;;;11.34;73.80;97150.59;29394;252;64013;-63
2023/05/24 01:37:23;;;;;;;0.50;0.50;;;;;;;11.32;73.74;97152.78;29395;389;63004;-52
2023/05/24 01:37:54;;;;;;;0.50;0.50;;;;;;;11.31;74.19;97150.37;29395;245;63009;-53
2023/05/24 01:38:25;;;;;;;0.50;0.50;;;;;;;11.31;74.10;97148.47;29395;417;63004;-52
2023/05/24 01:38:57;;;;;;;0.50;0.50;;;;;;;11.34;74.00;97145.16;29395;460;63009;-53
2023/05/24 01:39:29;;;;;;;0.50;0.50;;;;;;;11.35;72.98;97138.62;29395;249;63004;-53
2023/05/24 01:40:03;;;;;;;0.50;0.50;;;;;;;11.35;72.93;97141.34;29395;345;63008;-53
2023/05/24 01:40:36;;;;;;;0.50;0.50;;;;;;;11.43;72.92;97136.38;29395;262;63004;-52
2023/05/24 01:41:26;;;;;;;0.50;0.50;;;;;;;11.45;72.77;97134.13;29395;254;63009;-53
2023/05/24 01:42:24;;;;;;;0.50;0.50;;;;;;;11.43;73.28;97137.19;29394;197;64009;-53
2023/05/24 01:43:03;;;;;;;0.50;0.50;;;;;;;11.41;73.41;97140.19;29395;260;63009;-52
2023/05/24 01:43:42;;;;;;;0.50;0.50;;;;;;;11.51;71.71;97133.78;29395;225;63005;-52
2023/05/24 01:44:36;;;;;;;0.50;0.50;;;;;;;11.50;72.05;97136.78;29395;220;63009;-53
2023/05/24 01:45:43;;;;;;;0.50;0.50;;;;;;;11.45;71.30;97134.13;29395;277;63008;-53
2023/05/24 01:46:36;;;;;;;0.50;0.50;;;;;;;11.40;72.06;97133.13;29395;218;63016;-53
2023/05/24 01:47:59;;;;;;;0.60;0.60;;;;;;;11.38;71.75;97140.75;29394;264;64009;-53
2023/05/24 01:49:05;;;;;;;0.50;0.50;;;;;;;11.34;72.26;97142.44;29416;247;64014;-54
2023/05/24 01:49:43;;;;;;;0.50;0.50;;;;;;;11.32;71.67;97141.94;29394;254;64009;-52
2023/05/24 01:50:22;;;;;;;0.50;0.50;;;;;;;11.32;71.82;97149.25;29395;214;63009;-52
2023/05/24 01:51:01;;;;;;;0.50;0.50;;;;;;;11.32;71.87;97146.56;29395;198;63005;-53
2023/05/24 01:52:04;;;;;;;0.50;0.50;;;;;;;11.31;71.92;97145.75;29395;252;63015;-52
2023/05/24 01:52:36;;;;;;;0.50;0.50;;;;;;;11.29;71.47;97147.12;29394;367;64009;-53
2023/05/24 01:53:11;;;;;;;0.50;0.50;;;;;;;11.26;70.96;97143.09;29395;213;63009;-52
2023/05/24 01:53:46;;;;;;;0.50;0.50;;;;;;;11.24;70.66;97145.28;29395;268;63004;-52
2023/05/24 01:54:22;;;;;;;0.50;0.50;;;;;;;11.24;70.83;97145.28;29395;250;63009;-52
2023/05/24 01:54:56;;;;;;;0.50;0.50;;;;;;;11.22;71.00;97141.25;29395;285;63004;-53
2023/05/24 01:55:30;;;;;;;0.50;0.50;;;;;;;11.23;71.56;97151.81;29395;260;63008;-53
2023/05/24 01:56:05;;;;;;;0.50;0.50;;;;;;;11.25;71.48;97148.81;29395;250;63005;-52
2023/05/24 01:56:38;;;;;;;0.50;0.50;;;;;;;11.24;71.80;97150.72;29395;231;63009;-52
2023/05/24 01:57:10;;;;;;;0.50;0.50;;;;;;;11.26;71.33;97147.72;29395;239;63005;-52
2023/05/24 01:57:47;;;;;;;0.50;0.50;;;;;;;11.25;71.21;97144.19;29394;241;64013;-52
2023/05/24 01:58:22;;;;;;;0.55;0.55;;;;;;;11.25;71.73;97144.19;29395;266;63005;-54
2023/05/24 01:58:55;;;;;;;0.50;0.50;;;;;;;11.26;71.70;97143.09;29395;255;63009;-62
2023/05/24 01:59:29;;;;;;;0.50;0.50;;;;;;;11.26;71.59;97143.09;29395;202;63005;-52
2023/05/24 02:00:05;;;;;;;0.50;0.50;;;;;;;11.36;71.20;97145.69;29395;370;63009;-52
2023/05/24 02:00:39;;;;;;;0.50;0.50;;;;;;;11.39;70.80;97142.37;29395;197;63004;-52
2023/05/24 02:01:14;;;;;;;0.50;0.50;;;;;;;11.39;70.65;97141.56;29395;210;63009;-52
2023/05/24 02:01:47;;;;;;;0.50;0.50;;;;;;;11.39;70.78;97139.66;29395;227;63004;-52
2023/05/24 02:02:21;;;;;;;0.50;0.50;;;;;;;11.36;70.29;97137.53;29394;228;64013;-53
2023/05/24 02:02:53;;;;;;;0.50;0.50;;;;;;;11.35;70.58;97141.34;29395;405;63004;-53
2023/05/24 02:03:25;;;;;;;0.50;0.50;;;;;;;11.35;71.14;97141.34;29395;198;63009;-53
2023/05/24 02:03:59;;;;;;;0.50;0.50;;;;;;;11.33;70.87;97138.09;29394;209;64009;-54
2023/05/24 02:04:31;;;;;;;0.50;0.50;;;;;;;11.34;71.12;97142.44;29395;209;63017;-64
2023/05/24 02:05:03;;;;;;;0.50;0.50;;;;;;;11.36;70.96;97147.59;29395;270;63005;-52
2023/05/24 02:05:35;;;;;;;0.50;0.50;;;;;;;11.33;71.04;97140.81;29395;307;63013;-53
2023/05/24 02:06:07;;;;;;;0.50;0.50;;;;;;;11.30;71.21;97141.41;29395;213;63005;-52
2023/05/24 02:06:38;;;;;;;0.50;0.50;;;;;;;11.29;71.61;97147.94;29395;276;63009;-53
2023/05/24 02:07:09;;;;;;;0.50;0.50;;;;;;;11.28;71.60;97149.03;29394;233;64009;-53
2023/05/24 02:07:41;;;;;;;0.50;0.50;;;;;;;11.26;71.56;97148.53;29395;261;63019;-53
2023/05/24 02:08:12;;;;;;;0.50;0.50;;;;;;;11.21;70.99;97137.72;29394;197;64009;-53
2023/05/24 02:08:44;;;;;;;0.50;0.50;;;;;;;11.19;70.98;97145.34;29395;218;63009;-53
2023/05/24 02:09:15;;;;;;;0.50;0.50;;;;;;;11.19;70.97;97148.06;29395;370;63004;-53
2023/05/24 02:09:48;;;;;;;0.50;0.50;;;;;;;11.23;71.79;97148.28;29395;352;63009;-53
2023/05/24 02:10:23;;;;;;;0.50;0.50;;;;;;;11.28;71.59;97145.50;29394;419;64008;-53
2023/05/24 02:10:54;;;;;;;0.50;0.50;;;;;;;11.28;71.53;97140.88;29395;247;63009;-53
2023/05/24 02:11:26;;;;;;;0.50;0.50;;;;;;;11.30;71.27;97143.31;29395;324;63005;-53
2023/05/24 02:11:58;;;;;;;0.50;0.50;;;;;;;11.30;71.29;97151.47;29395;221;63027;-55
2023/05/24 02:12:30;;;;;;;0.50;0.50;;;;;;;11.27;70.65;97144.69;29395;298;63005;-53
2023/05/24 02:13:01;;;;;;;0.50;0.50;;;;;;;11.24;70.35;97141.75;29395;196;63009;-53
2023/05/24 02:13:33;;;;;;;0.50;0.50;;;;;;;11.27;70.75;97144.69;29394;212;64009;-55
2023/05/24 02:14:04;;;;;;;0.60;0.60;;;;;;;11.28;70.36;97140.88;29395;199;63009;-54
2023/05/24 02:14:41;;;;;;;0.50;0.50;;;;;;;11.26;70.63;97143.09;29395;212;63004;-54
2023/05/24 02:15:13;;;;;;;0.50;0.50;;;;;;;11.24;70.93;97145.28;29395;244;63009;-53
2023/05/24 02:15:46;;;;;;;0.50;0.50;;;;;;;11.24;71.27;97145.28;29394;238;64016;-55
2023/05/24 02:16:18;;;;;;;0.50;0.50;;;;;;;11.34;70.55;97139.72;29395;199;63009;-53
2023/05/24 02:16:49;;;;;;;0.50;0.50;;;;;;;11.33;70.25;97146.25;29395;197;63007;-53
2023/05/24 02:17:21;;;;;;;0.50;0.50;;;;;;;11.31;70.30;97147.66;29395;253;63008;-54
2023/05/24 02:17:55;;;;;;;0.50;0.50;;;;;;;11.30;70.65;97152.28;29394;306;64001;-52
2023/05/24 02:18:26;;;;;;;0.50;0.50;;;;;;;11.29;70.30;97147.94;29395;262;63009;-53
2023/05/24 02:18:58;;;;;;;0.50;0.50;;;;;;;11.29;70.62;97141.69;29395;235;63007;-53
2023/05/24 02:19:29;;;;;;;0.50;0.50;;;;;;;11.28;70.85;97146.31;29394;389;64013;-53
2023/05/24 02:20:05;;;;;;;0.50;0.50;;;;;;;11.26;70.57;97148.53;29395;347;63005;-53
2023/05/24 02:20:40;;;;;;;0.50;0.50;;;;;;;11.25;70.78;97156.97;29394;197;64013;-53
2023/05/24 02:21:12;;;;;;;0.50;0.50;;;;;;;11.25;71.08;97157.75;29394;355;64005;-54
2023/05/24 02:21:45;;;;;;;0.50;0.50;;;;;;;11.27;71.05;97146.59;29394;285;64013;-53
2023/05/24 02:22:16;;;;;;;1.37;1.37;;;;;;;11.25;70.83;97149.63;29395;198;63004;-56
2023/05/24 02:22:48;;;;;;;0.50;0.50;;;;;;;11.24;70.84;97149.91;29395;264;63009;-53
2023/05/24 02:23:20;;;;;;;0.50;0.50;;;;;;;11.24;71.27;97156.16;29395;223;63004;-53
2023/05/24 02:23:51;;;;;;;0.50;0.50;;;;;;;11.23;70.81;97153.72;29395;406;63009;-53
2023/05/24 02:24:22;;;;;;;0.50;0.50;;;;;;;11.21;70.48;97151.28;29395;196;63004;-53
2023/05/24 02:24:54;;;;;;;0.50;0.50;;;;;;;11.20;71.01;97155.09;29395;295;63008;-54
2023/05/24 02:25:25;;;;;;;0.50;0.50;;;;;;;11.21;70.93;97151.28;29395;211;63005;-52
2023/05/24 02:25:56;;;;;;;0.50;0.50;;;;;;;11.20;70.64;97159.72;29394;380;64014;-53
2023/05/24 02:26:28;;;;;;;0.50;0.50;;;;;;;11.24;71.02;97149.91;29394;200;64009;-54
2023/05/24 02:26:59;;;;;;;0.50;0.50;;;;;;;11.28;70.56;97150.94;29394;197;64013;-53
2023/05/24 02:27:31;;;;;;;0.50;0.50;;;;;;;11.29;70.43;97152.56;29395;371;63005;-54
2023/05/24 02:28:02;;;;;;;0.50;0.50;;;;;;;11.28;70.49;97151.75;29395;230;63009;-53
2023/05/24 02:28:33;;;;;;;0.50;0.50;;;;;;;11.25;70.36;97152.34;29395;267;63005;-53
2023/05/24 02:29:04;;;;;;;0.50;0.50;;;;;;;11.28;70.97;97161.81;29395;487;63009;-52
2023/05/24 02:29:36;;;;;;;0.50;0.50;;;;;;;11.27;70.68;97155.56;29395;379;63004;-53
2023/05/24 02:30:09;;;;;;;0.50;0.50;;;;;;;11.26;70.96;97153.13;29395;344;63009;-53
2023/05/24 02:30:43;;;;;;;0.50;0.50;;;;;;;11.23;71.75;97153.72;29395;222;63004;-62
2023/05/24 02:31:14;;;;;;;0.50;0.50;;;;;;;11.19;71.43;97158.91;29394;439;64013;-53
2023/05/24 02:31:46;;;;;;;0.60;0.60;;;;;;;11.26;70.87;97153.94;29395;267;63004;-55
2023/05/24 02:32:17;;;;;;;0.50;0.50;;;;;;;11.33;70.88;97154.41;29395;390;63008;-56
2023/05/24 02:32:48;;;;;;;0.50;0.50;;;;;;;11.31;70.12;97156.59;29395;231;63005;-53
2023/05/24 02:33:20;;;;;;;0.50;0.50;;;;;;;11.30;70.21;97154.19;29395;265;63009;-53
2023/05/24 02:33:51;;;;;;;0.50;0.50;;;;;;;11.27;70.55;97155.56;29395;211;63005;-53
2023/05/24 02:34:23;;;;;;;0.50;0.50;;;;;;;11.25;70.48;97156.97;29394;358;64013;-52
2023/05/24 02:34:54;;;;;;;0.50;0.50;;;;;;;11.22;70.83;97155.63;29395;264;63005;-53
2023/05/24 02:35:25;;;;;;;0.50;0.50;;;;;;;11.20;70.69;97148.88;29395;228;63009;-54
2023/05/24 02:35:57;;;;;;;0.50;0.50;;;;;;;11.20;71.21;97154.28;29395;239;63005;-53
2023/05/24 02:36:28;;;;;;;0.50;0.50;;;;;;;11.18;71.17;97154.59;29395;392;63009;-53
2023/05/24 02:36:59;;;;;;;0.73;0.73;;;;;;;11.17;71.58;97160.31;29394;307;64009;-53
2023/05/24 02:37:31;;;;;;;0.50;0.50;;;;;;;11.22;71.73;97152.09;29395;354;63009;-53
2023/05/24 02:38:05;;;;;;;0.50;0.50;;;;;;;11.28;70.99;97156.38;29395;225;63004;-53
2023/05/24 02:38:36;;;;;;;0.60;0.60;;;;;;;11.28;71.12;97154.47;29395;381;63009;-53
2023/05/24 02:39:08;;;;;;;0.50;0.50;;;;;;;11.26;71.48;97159.38;29395;331;63004;-53
2023/05/24 02:39:41;;;;;;;0.50;0.50;;;;;;;11.22;71.45;97160.25;29395;212;63008;-53
2023/05/24 02:40:13;;;;;;;0.50;0.50;;;;;;;11.18;71.82;97156.50;29395;257;63005;-53
2023/05/24 02:40:44;;;;;;;0.50;0.50;;;;;;;11.14;70.72;97155.44;29395;242;63009;-53
2023/05/24 02:41:17;;;;;;;0.50;0.50;;;;;;;11.11;71.29;97156.84;29394;269;64009;-53
2023/05/24 02:41:48;;;;;;;0.50;0.50;;;;;;;11.08;71.01;97150.09;29395;199;63009;-53
2023/05/24 02:42:20;;;;;;;0.50;0.50;;;;;;;11.06;71.40;97154.22;29394;278;64009;-53
2023/05/24 02:42:54;;;;;;;0.50;0.50;;;;;;;11.05;71.75;97147.97;29395;247;63009;-54
2023/05/24 02:43:26;;;;;;;0.50;0.50;;;;;;;11.10;71.75;97155.22;29395;225;63005;-55
2023/05/24 02:43:57;;;;;;;0.50;0.50;;;;;;;11.13;71.45;97149.22;29395;249;63015;-54
2023/05/24 02:44:29;;;;;;;0.50;0.50;;;;;;;11.15;71.47;97152.44;29395;228;63004;-53
2023/05/24 02:45:01;;;;;;;0.50;0.50;;;;;;;11.14;71.72;97153.53;29395;197;63024;-52
2023/05/24 02:45:32;;;;;;;0.50;0.50;;;;;;;11.16;71.88;97147.81;29395;410;63010;-53
2023/05/24 02:46:03;;;;;;;0.50;0.50;;;;;;;11.14;71.64;97145.41;29395;265;63009;-52
2023/05/24 02:46:35;;;;;;;0.50;0.50;;;;;;;11.14;71.76;97150.03;29394;200;64009;-53
2023/05/24 02:47:06;;;;;;;0.50;0.50;;;;;;;11.12;71.97;97144.88;29395;320;63008;-52
2023/05/24 02:47:41;;;;;;;0.50;0.50;;;;;;;11.14;71.90;97150.03;29395;477;63004;-52
2023/05/24 02:48:12;;;;;;;0.50;0.50;;;;;;;11.14;71.93;97147.31;29395;289;63014;-52
2023/05/24 02:48:43;;;;;;;0.50;0.50;;;;;;;11.12;72.20;97147.59;29395;408;63008;-52